createdAt,value
2022-08-10T00:01:54.400Z,3.10
2022-08-10T00:04:23.377Z,6.22
2022-08-10T00:06:54.940Z,3.38
2022-08-10T00:09:22.396Z,3.67
2022-08-10T00:11:49.657Z,3.22
2022-08-10T00:14:16.462Z,3.00
2022-08-10T00:16:43.151Z,3.47
2022-08-10T00:19:09.937Z,3.80
2022-08-10T00:21:37.201Z,3.28
2022-08-10T00:24:04.311Z,3.40
2022-08-10T00:28:01.639Z,4.40
2022-08-10T00:29:17.613Z,3.08
2022-08-10T00:31:58.772Z,3.35
2022-08-10T00:34:33.079Z,3.30
2022-08-10T00:37:00.470Z,4.00
2022-08-10T00:39:28.954Z,5.50
2022-08-10T00:42:06.911Z,3.45
2022-08-10T00:44:38.161Z,4.13
2022-08-10T00:47:06.123Z,4.60
2022-08-10T00:49:32.903Z,3.92
2022-08-10T00:51:59.987Z,3.72
2022-08-10T00:54:26.707Z,4.20
2022-08-10T00:57:16.309Z,3.53
2022-08-10T00:59:58.710Z,3.60
2022-08-10T01:02:32.403Z,3.70
2022-08-10T01:05:02.970Z,3.95
2022-08-10T01:07:56.983Z,4.07
2022-08-10T01:10:41.389Z,3.60
2022-08-10T01:13:10.834Z,4.05
2022-08-10T01:15:54.252Z,4.03
2022-08-10T01:18:49.227Z,3.33
2022-08-10T01:21:25.435Z,3.88
2022-08-10T01:24:23.183Z,4.47
2022-08-10T01:27:13.676Z,3.75
2022-08-10T01:29:50.275Z,4.43
2022-08-10T01:32:26.559Z,3.88
2022-08-10T01:35:06.536Z,3.63
2022-08-10T01:37:38.509Z,3.47
2022-08-10T01:40:09.902Z,3.72
2022-08-10T01:42:38.510Z,3.83
2022-08-10T01:45:09.151Z,4.22
2022-08-10T01:48:00.030Z,3.60
2022-08-10T01:51:00.768Z,3.10
2022-08-10T01:53:40.149Z,3.75
2022-08-10T01:56:11.063Z,2.92
2022-08-10T01:58:39.200Z,3.88
2022-08-10T02:01:09.717Z,3.80
2022-08-10T02:04:03.479Z,4.40
2022-08-10T02:06:28.163Z,6.88
2022-08-10T02:09:06.579Z,3.72
2022-08-10T02:11:55.930Z,5.82
2022-08-10T02:14:23.711Z,3.90
2022-08-10T02:16:52.529Z,3.80
2022-08-10T02:19:23.772Z,3.53
2022-08-10T02:22:35.645Z,4.30
2022-08-10T02:24:42.582Z,4.50
2022-08-10T02:27:10.483Z,3.75
2022-08-10T02:29:42.381Z,3.97
2022-08-10T02:32:11.439Z,4.47
2022-08-10T02:34:40.378Z,6.57
2022-08-10T02:37:10.741Z,4.30
2022-08-10T02:39:38.198Z,4.22
2022-08-10T02:45:14.669Z,4.32
2022-08-10T02:45:30.807Z,3.63
2022-08-10T02:48:19.263Z,4.20
2022-08-10T02:50:54.667Z,4.15
2022-08-10T02:53:49.480Z,4.22
2022-08-10T02:56:43.545Z,4.13
2022-08-10T02:59:17.569Z,6.85
2022-08-10T03:01:48.559Z,4.50
2022-08-10T03:04:56.203Z,4.60
2022-08-10T03:07:15.176Z,6.15
2022-08-10T03:09:43.238Z,5.70
2022-08-10T03:12:36.474Z,6.10
2022-08-10T03:15:01.516Z,5.70
2022-08-10T03:17:30.184Z,5.60
2022-08-10T03:20:35.181Z,8.68
2022-08-10T03:22:46.277Z,6.05
2022-08-10T03:25:15.143Z,5.82
2022-08-10T03:27:43.364Z,6.05
2022-08-10T03:30:28.477Z,8.65
2022-08-10T03:32:59.032Z,10.15
2022-08-10T03:35:26.539Z,9.00
2022-08-10T03:37:59.195Z,7.72
2022-08-10T03:40:44.769Z,7.22
2022-08-10T03:43:15.840Z,6.35
2022-08-10T03:45:56.060Z,10.82
2022-08-10T03:48:32.149Z,4.93
2022-08-10T03:51:15.865Z,5.20
2022-08-10T03:54:04.871Z,4.60
2022-08-10T03:56:32.658Z,7.75
2022-08-10T03:59:01.009Z,10.88
2022-08-10T04:02:43.557Z,5.63
2022-08-10T04:04:20.914Z,6.40
2022-08-10T04:06:54.797Z,5.85
2022-08-10T04:09:43.403Z,6.95
2022-08-10T04:12:14.955Z,5.05
2022-08-10T04:14:49.701Z,5.35
2022-08-10T04:18:02.967Z,4.63
2022-08-10T04:20:11.921Z,5.55
2022-08-10T04:22:41.520Z,5.00
2022-08-10T04:25:09.063Z,5.68
2022-08-10T04:27:36.240Z,5.45
2022-08-10T04:30:03.347Z,4.53
2022-08-10T04:32:32.053Z,4.63
2022-08-10T04:34:59.885Z,10.32
2022-08-10T04:37:27.374Z,4.95
2022-08-10T04:39:55.004Z,10.77
2022-08-10T04:42:21.759Z,3.85
2022-08-10T04:44:49.963Z,7.63
2022-08-10T04:47:37.847Z,5.40
2022-08-10T04:50:03.707Z,6.82
2022-08-10T04:52:31.963Z,3.38
2022-08-10T04:54:58.712Z,3.80
2022-08-10T04:57:25.530Z,7.20
2022-08-10T04:59:52.383Z,4.05
2022-08-10T05:02:29.567Z,4.95
2022-08-10T05:05:05.775Z,5.53
2022-08-10T05:07:32.962Z,7.55
2022-08-10T05:10:13.467Z,7.57
2022-08-10T05:12:40.508Z,6.15
2022-08-10T05:15:15.454Z,3.63
2022-08-10T05:18:03.254Z,5.72
2022-08-10T05:20:30.262Z,4.78
2022-08-10T05:22:57.383Z,9.45
2022-08-10T05:25:24.048Z,5.03
2022-08-10T05:27:52.365Z,4.40
2022-08-10T05:30:21.945Z,3.05
2022-08-10T05:32:56.505Z,4.07
2022-08-10T05:35:27.667Z,5.57
2022-08-10T05:38:09.420Z,4.65
2022-08-10T05:40:46.957Z,5.15
2022-08-10T05:43:19.720Z,4.60
2022-08-10T05:46:19.329Z,4.72
2022-08-10T05:48:57.767Z,4.82
2022-08-10T05:51:27.485Z,5.10
2022-08-10T05:54:03.114Z,7.47
2022-08-10T05:56:56.746Z,5.60
2022-08-10T06:00:11.074Z,5.53
2022-08-10T06:02:32.079Z,5.50
2022-08-10T06:05:09.263Z,5.32
2022-08-10T06:07:40.959Z,6.82
2022-08-10T06:10:11.732Z,5.72
2022-08-10T06:12:55.253Z,5.90
2022-08-10T06:15:50.832Z,6.70
2022-08-10T06:18:18.153Z,6.55
2022-08-10T06:20:45.996Z,7.55
2022-08-10T06:23:13.897Z,6.50
2022-08-10T06:26:08.325Z,6.70
2022-08-10T06:28:31.124Z,6.18
2022-08-10T06:30:59.609Z,9.35
2022-08-10T07:38:31.678Z,8.63
2022-08-10T07:41:02.814Z,7.80
2022-08-10T07:43:35.597Z,7.43
2022-08-10T07:46:05.507Z,7.75
2022-08-10T07:48:42.366Z,7.93
2022-08-10T07:51:10.570Z,7.60
2022-08-10T07:53:45.280Z,6.22
2022-08-10T07:56:32.034Z,4.32
2022-08-10T07:59:12.120Z,6.45
2022-08-10T08:01:44.425Z,6.47
2022-08-10T08:04:14.044Z,7.32
2022-08-10T08:06:42.610Z,6.28
2022-08-10T08:09:11.136Z,6.13
2022-08-10T08:11:41.371Z,5.30
2022-08-10T08:14:09.811Z,5.63
2022-08-10T08:16:40.485Z,4.85
2022-08-10T08:24:08.724Z,4.63
2022-08-10T08:24:44.578Z,4.75
2022-08-10T08:27:15.326Z,4.20
2022-08-10T08:29:44.360Z,4.18
2022-08-10T08:32:11.796Z,3.35
2022-08-10T08:34:41.046Z,4.13
2022-08-10T08:37:09.863Z,4.82
2022-08-10T08:39:37.487Z,3.33
2022-08-10T08:42:31.867Z,3.28
2022-08-10T08:45:07.365Z,7.00
2022-08-10T08:48:04.325Z,3.80
2022-08-10T08:50:57.850Z,3.65
2022-08-10T08:54:03.609Z,3.90
2022-08-10T08:56:54.012Z,3.58
2022-08-10T08:59:43.962Z,5.88
2022-08-10T09:02:29.506Z,3.45
2022-08-10T09:05:16.330Z,3.03
2022-08-10T09:08:24.366Z,3.33
2022-08-10T09:11:27.703Z,3.90
2022-08-10T09:14:36.115Z,3.17
2022-08-10T09:17:08.467Z,5.50
2022-08-10T09:19:47.372Z,2.95
2022-08-10T09:22:45.537Z,3.35
2022-08-10T09:25:24.669Z,5.10
2022-08-10T09:28:03.805Z,3.58
2022-08-10T09:31:21.610Z,4.07
2022-08-10T09:36:22.798Z,2.78
2022-08-10T09:37:24.072Z,2.30
2022-08-10T09:41:00.722Z,3.45
2022-08-10T09:43:36.556Z,1.90
2022-08-10T09:46:36.436Z,2.15
2022-08-10T09:49:22.498Z,1.30
2022-08-10T09:52:27.406Z,2.20
2022-08-10T09:55:11.575Z,0.80
2022-08-10T09:58:06.818Z,2.05
2022-08-10T10:00:41.817Z,0.90
2022-08-10T10:03:17.228Z,1.85
2022-08-10T10:06:05.319Z,1.95
2022-08-10T10:08:53.683Z,0.98
2022-08-10T10:11:43.621Z,2.47
2022-08-10T10:14:34.487Z,0.90
2022-08-10T10:17:17.418Z,1.00
2022-08-10T10:19:49.767Z,1.38
2022-08-10T10:22:26.169Z,0.73
2022-08-10T10:25:19.980Z,1.02
2022-08-10T10:28:11.453Z,1.23
2022-08-10T10:30:51.589Z,3.60
2022-08-10T10:33:47.395Z,1.60
2022-08-10T10:36:20.023Z,1.00
2022-08-10T10:38:48.565Z,0.90
2022-08-10T10:41:30.615Z,1.17
2022-08-10T10:44:30.681Z,1.23
2022-08-10T10:47:07.373Z,1.02
2022-08-10T10:50:01.549Z,3.63
2022-08-10T10:52:58.294Z,1.85
2022-08-10T10:56:14.989Z,1.58
2022-08-10T10:58:30.140Z,1.13
2022-08-10T11:01:25.902Z,1.35
2022-08-10T11:04:08.436Z,1.20
2022-08-10T11:07:00.167Z,3.40
2022-08-10T11:10:09.792Z,1.65
2022-08-10T11:12:28.678Z,1.52
2022-08-10T11:15:09.054Z,2.20
2022-08-10T11:17:41.476Z,1.17
2022-08-10T11:20:26.088Z,1.20
2022-08-10T11:23:17.782Z,1.20
2022-08-10T11:26:06.384Z,3.33
2022-08-10T11:28:51.472Z,2.45
2022-08-10T11:31:37.780Z,3.65
2022-08-10T11:34:49.287Z,1.52
2022-08-10T11:37:28.355Z,2.15
2022-08-10T11:40:05.163Z,3.22
2022-08-10T11:42:46.513Z,1.25
2022-08-10T11:45:28.866Z,2.45
2022-08-10T11:48:53.261Z,1.42
2022-08-10T11:51:29.939Z,1.05
2022-08-10T11:54:10.623Z,2.65
2022-08-10T11:56:50.704Z,1.60
2022-08-10T11:59:38.091Z,1.38
2022-08-10T12:02:07.117Z,2.03
2022-08-10T12:04:36.033Z,1.30
2022-08-10T12:08:10.234Z,2.70
2022-08-10T12:10:09.932Z,2.47
2022-08-10T12:12:46.200Z,1.73
2022-08-10T12:16:05.571Z,1.85
2022-08-10T12:18:48.060Z,2.10
2022-08-10T12:21:29.073Z,1.83
2022-08-10T12:24:03.537Z,1.70
2022-08-10T12:26:40.120Z,2.35
2022-08-10T12:29:55.039Z,5.30
2022-08-10T12:32:25.730Z,4.50
2022-08-10T12:35:03.796Z,5.63
2022-08-10T12:37:45.335Z,5.03
2022-08-10T12:40:36.473Z,4.30
2022-08-10T12:44:07.932Z,4.18
2022-08-10T12:46:20.079Z,4.13
2022-08-10T12:49:11.216Z,3.92
2022-08-10T12:51:46.955Z,2.85
2022-08-10T12:54:31.983Z,2.40
2022-08-10T12:57:03.562Z,2.88
2022-08-10T12:59:32.426Z,2.97
2022-08-10T13:02:10.070Z,2.47
2022-08-10T13:04:40.548Z,2.63
2022-08-10T13:07:09.515Z,1.98
2022-08-10T13:09:55.935Z,2.08
2022-08-10T13:12:39.100Z,2.75
2022-08-10T13:15:45.767Z,1.75
2022-08-10T13:18:18.620Z,3.40
2022-08-10T13:20:52.175Z,3.88
2022-08-10T13:23:24.031Z,2.72
2022-08-10T13:25:52.379Z,2.15
2022-08-10T13:28:37.338Z,5.13
2022-08-10T13:31:17.459Z,6.95
2022-08-10T13:34:40.882Z,4.95
2022-08-10T13:36:42.115Z,6.68
2022-08-10T13:39:11.407Z,4.10
2022-08-10T13:41:41.085Z,8.20
2022-08-10T13:44:11.317Z,4.35
2022-08-10T13:46:42.165Z,14.52
2022-08-10T13:49:11.208Z,13.85
2022-08-10T13:51:53.736Z,5.88
2022-08-10T13:54:29.151Z,8.13
2022-08-10T13:56:57.798Z,12.02
2022-08-10T14:00:34.193Z,9.07
2022-08-10T14:02:21.576Z,11.07
2022-08-10T14:04:48.274Z,11.65
2022-08-10T14:07:17.395Z,12.98
2022-08-10T14:09:47.576Z,11.02
2022-08-10T14:12:15.212Z,8.52
2022-08-10T14:14:44.086Z,9.13
2022-08-10T14:17:13.261Z,8.75
2022-08-10T14:19:51.475Z,5.22
2022-08-10T14:22:33.927Z,4.45
2022-08-10T14:25:06.682Z,1.92
2022-08-10T14:28:02.397Z,3.42
2022-08-10T14:30:23.468Z,5.60
2022-08-10T14:33:00.400Z,2.20
2022-08-10T14:36:21.109Z,2.72
2022-08-10T14:38:19.599Z,1.95
2022-08-10T14:40:51.839Z,1.60
2022-08-10T14:43:28.085Z,2.08
2022-08-10T14:46:01.422Z,2.08
2022-08-10T14:48:33.841Z,3.67
2022-08-10T14:51:03.103Z,2.50
2022-08-10T14:53:34.869Z,3.33
2022-08-10T14:56:15.730Z,4.03
2022-08-10T14:59:05.911Z,3.38
2022-08-10T15:02:00.502Z,3.60
2022-08-10T15:04:26.709Z,8.23
2022-08-10T15:07:00.088Z,5.63
2022-08-10T15:09:59.789Z,5.65
2022-08-10T15:12:27.274Z,5.63
2022-08-10T15:14:55.322Z,5.43
2022-08-10T15:17:34.784Z,9.57
2022-08-10T15:20:13.396Z,5.72
2022-08-10T15:22:50.295Z,11.98
2022-08-10T15:25:24.674Z,5.68
2022-08-10T15:28:04.897Z,13.60
2022-08-10T15:30:40.473Z,10.52
2022-08-10T15:33:57.682Z,10.82
2022-08-10T15:37:02.505Z,7.82
2022-08-10T15:40:25.764Z,7.25
2022-08-10T15:42:34.134Z,5.75
2022-08-10T15:45:02.081Z,10.13
2022-08-10T15:47:45.796Z,5.03
2022-08-10T15:50:15.959Z,9.45
2022-08-10T15:53:00.815Z,5.88
2022-08-10T15:55:44.070Z,5.07
2022-08-10T15:58:39.192Z,5.07
2022-08-10T16:02:12.405Z,3.85
2022-08-10T16:04:47.781Z,4.57
2022-08-10T16:07:42.877Z,5.80
2022-08-10T16:10:28.105Z,4.93
2022-08-10T16:13:50.095Z,8.07
2022-08-10T16:15:58.022Z,7.30
2022-08-10T16:18:27.257Z,4.25
2022-08-10T16:21:02.857Z,6.72
2022-08-10T16:23:35.423Z,3.53
2022-08-10T16:26:13.511Z,4.75
2022-08-10T16:28:48.558Z,3.83
2022-08-10T16:31:21.564Z,3.72
2022-08-10T16:34:00.712Z,3.95
2022-08-10T16:36:45.813Z,4.40
2022-08-10T16:39:57.783Z,4.20
2022-08-10T16:42:31.206Z,3.65
2022-08-10T16:45:19.246Z,4.45
2022-08-10T16:47:51.669Z,4.00
2022-08-10T16:50:26.775Z,7.03
2022-08-10T16:52:55.663Z,3.10
2022-08-10T16:55:49.401Z,3.90
2022-08-10T16:58:14.427Z,3.83
2022-08-10T17:00:44.580Z,3.17
2022-08-10T17:03:22.833Z,4.30
2022-08-10T17:06:11.937Z,2.92
2022-08-10T17:08:49.587Z,3.25
2022-08-10T17:11:18.601Z,2.80
2022-08-10T17:13:45.758Z,10.20
2022-08-10T17:16:14.759Z,4.20
2022-08-10T17:18:46.635Z,3.90
2022-08-10T17:21:37.222Z,3.05
2022-08-10T17:24:21.632Z,2.33
2022-08-10T17:26:49.689Z,2.22
2022-08-10T17:29:57.113Z,1.80
2022-08-10T17:32:44.571Z,4.72
2022-08-10T17:35:22.568Z,1.80
2022-08-10T17:38:10.492Z,2.78
2022-08-10T17:40:48.887Z,2.28
2022-08-10T17:43:58.303Z,1.88
2022-08-10T17:46:14.593Z,3.83
2022-08-10T17:48:42.877Z,2.75
2022-08-10T17:51:13.820Z,2.47
2022-08-10T17:53:42.039Z,2.38
2022-08-10T17:56:12.956Z,3.10
2022-08-10T17:58:45.803Z,1.77
2022-08-10T18:01:41.500Z,1.63
2022-08-10T18:04:14.329Z,2.42
2022-08-10T18:06:43.174Z,3.53
2022-08-10T18:09:17.676Z,1.75
2022-08-10T18:11:48.267Z,1.05
2022-08-10T18:14:17.257Z,1.30
2022-08-10T18:16:45.647Z,0.70
2022-08-10T18:19:15.540Z,1.63
2022-08-10T18:21:47.042Z,0.80
2022-08-10T18:24:18.995Z,1.00
2022-08-10T18:26:49.693Z,2.15
2022-08-10T18:29:22.109Z,2.28
2022-08-10T18:31:54.189Z,0.65
2022-08-10T18:34:23.492Z,0.60
2022-08-10T18:36:51.882Z,0.63
2022-08-10T18:39:26.341Z,2.25
2022-08-10T18:42:26.709Z,1.00
2022-08-10T18:45:21.417Z,3.00
2022-08-10T18:48:05.091Z,0.93
2022-08-10T18:50:33.552Z,0.60
2022-08-10T18:53:04.603Z,0.60
2022-08-10T18:55:35.381Z,2.00
2022-08-10T18:59:03.303Z,0.63
2022-08-10T19:02:14.547Z,0.80
2022-08-10T19:05:31.610Z,3.05
2022-08-10T19:08:49.550Z,0.60
2022-08-10T19:11:38.269Z,0.73
2022-08-10T19:14:32.997Z,0.63
2022-08-10T19:17:21.394Z,1.58
2022-08-10T19:20:11.964Z,0.60
2022-08-10T19:22:47.798Z,0.70
2022-08-10T19:26:41.622Z,1.27
2022-08-10T19:28:51.525Z,3.03
2022-08-10T19:31:24.744Z,0.70
2022-08-10T19:34:26.190Z,1.42
2022-08-10T19:37:21.060Z,1.60
2022-08-10T19:40:44.279Z,0.60
2022-08-10T19:43:59.048Z,2.53
2022-08-10T19:47:00.244Z,1.23
2022-08-10T19:49:39.779Z,1.65
2022-08-10T19:52:19.655Z,0.85
2022-08-10T19:55:15.119Z,3.05
2022-08-10T19:58:19.256Z,1.20
2022-08-10T20:01:02.452Z,0.88
2022-08-10T20:03:54.026Z,1.23
2022-08-10T20:06:45.376Z,0.68
2022-08-10T20:09:20.133Z,0.80
2022-08-10T20:12:08.114Z,1.00
2022-08-10T20:15:10.305Z,1.90
2022-08-10T20:17:58.609Z,4.15
2022-08-10T20:20:32.853Z,0.80
2022-08-10T20:23:10.985Z,0.80
2022-08-10T20:25:40.780Z,1.02
2022-08-10T20:28:17.714Z,1.95
2022-08-10T20:31:02.576Z,4.25
2022-08-10T20:33:41.240Z,0.80
2022-08-10T20:36:43.925Z,0.85
2022-08-10T20:39:25.602Z,2.05
2022-08-10T20:41:56.069Z,0.80
2022-08-10T20:44:28.683Z,1.80
2022-08-10T20:47:18.601Z,0.95
2022-08-10T20:50:04.300Z,1.25
2022-08-10T20:52:33.779Z,1.40
2022-08-10T20:55:08.456Z,1.38
2022-08-10T20:57:59.851Z,0.90
2022-08-10T21:00:55.727Z,1.67
2022-08-10T21:03:58.513Z,1.23
2022-08-10T21:06:43.812Z,0.90
2022-08-10T21:09:19.916Z,1.00
2022-08-10T21:11:55.356Z,1.95
2022-08-10T21:15:15.988Z,1.65
2022-08-10T21:18:24.184Z,1.98
2022-08-10T21:21:09.736Z,2.80
2022-08-10T21:23:46.952Z,3.13
2022-08-10T21:26:17.958Z,2.15
2022-08-10T21:29:20.470Z,2.28
2022-08-10T21:32:14.686Z,1.52
2022-08-10T21:35:05.973Z,3.65
2022-08-10T21:38:06.894Z,1.60
2022-08-10T21:40:40.580Z,2.20
2022-08-10T21:43:44.183Z,1.70
2022-08-10T21:46:55.165Z,1.05
2022-08-10T21:50:03.901Z,1.50
2022-08-10T21:53:22.120Z,2.10
2022-08-10T21:56:30.889Z,1.50
2022-08-10T21:59:23.751Z,2.30
2022-08-10T22:02:22.569Z,1.88
2022-08-10T22:05:20.747Z,1.48
2022-08-10T22:08:12.616Z,1.58
2022-08-10T22:11:06.388Z,1.58
2022-08-10T22:13:56.023Z,1.70
2022-08-10T22:17:01.000Z,1.58
2022-08-10T22:19:51.454Z,1.80
2022-08-10T22:22:56.222Z,1.77
2022-08-10T22:26:05.167Z,1.52
2022-08-10T22:28:51.175Z,1.90
2022-08-10T22:31:53.653Z,2.88
2022-08-10T22:35:27.129Z,2.15
2022-08-10T22:38:30.820Z,1.65
2022-08-10T22:41:21.217Z,2.17
2022-08-10T22:44:07.854Z,1.90
2022-08-10T22:46:54.001Z,1.95
2022-08-10T22:49:25.270Z,2.17
2022-08-10T22:52:01.274Z,1.95
2022-08-10T22:54:52.338Z,2.17
2022-08-10T22:57:38.793Z,1.80
2022-08-10T23:00:16.264Z,2.05
2022-08-10T23:02:57.457Z,2.00
2022-08-10T23:05:54.005Z,3.05
2022-08-10T23:08:31.074Z,2.40
2022-08-10T23:11:04.552Z,2.47
2022-08-10T23:13:37.835Z,2.83
2022-08-10T23:16:28.275Z,2.53
2022-08-10T23:19:10.780Z,2.28
2022-08-10T23:22:04.320Z,2.90
2022-08-10T23:24:41.955Z,3.20
2022-08-10T23:27:37.814Z,4.00
2022-08-10T23:30:10.576Z,2.92
2022-08-10T23:32:47.032Z,5.88
2022-08-10T23:36:31.540Z,4.30
2022-08-10T23:38:08.081Z,3.67
2022-08-10T23:40:35.600Z,3.30
2022-08-10T23:43:04.907Z,3.00
2022-08-10T23:45:53.725Z,2.65
2022-08-10T23:48:30.479Z,3.10
2022-08-10T23:51:02.983Z,2.80
2022-08-10T23:53:46.333Z,2.80
2022-08-10T23:56:16.874Z,2.30
2022-08-10T23:58:49.662Z,2.95
